sensor_id;sensor_type;location;lat;lon;timestamp;P1;durP1;ratioP1;P2;durP2;ratioP2
41229;SDS011;26964;50.428;19.218;2023-07-09T00:00:04;10.5;;;6.2;;
41229;SDS011;26964;50.428;19.218;2023-07-09T00:01:03;13.6;;;7.0;;
41229;SDS011;26964;50.428;19.218;2023-07-09T00:02:03;13.4;;;6.3;;
41229;SDS011;26964;50.428;19.218;2023-07-09T00:03:03;12.8;;;6.3;;
41229;SDS011;26964;50.428;19.218;2023-07-09T00:04:03;13.2;;;6.2;;
41229;SDS011;26964;50.428;19.218;2023-07-09T00:05:03;15.2;;;6.9;;
41229;SDS011;26964;50.428;19.218;2023-07-09T00:06:03;15.1;;;6.3;;
41229;SDS011;26964;50.428;19.218;2023-07-09T00:07:03;12.3;;;6.9;;
41229;SDS011;26964;50.428;19.218;2023-07-09T00:08:03;16.2;;;6.8;;
41229;SDS011;26964;50.428;19.218;2023-07-09T00:09:03;15.6;;;6.9;;
41229;SDS011;26964;50.428;19.218;2023-07-09T00:10:03;13.6;;;7.4;;
41229;SDS011;26964;50.428;19.218;2023-07-09T00:11:03;12.6;;;6.9;;
41229;SDS011;26964;50.428;19.218;2023-07-09T00:12:03;11.6;;;6.0;;
41229;SDS011;26964;50.428;19.218;2023-07-09T00:13:03;14.2;;;7.1;;
41229;SDS011;26964;50.428;19.218;2023-07-09T00:14:04;17.9;;;7.1;;
41229;SDS011;26964;50.428;19.218;2023-07-09T00:15:03;15.3;;;6.9;;
41229;SDS011;26964;50.428;19.218;2023-07-09T00:16:06;12.3;;;7.3;;
41229;SDS011;26964;50.428;19.218;2023-07-09T00:17:04;17.4;;;7.6;;
41229;SDS011;26964;50.428;19.218;2023-07-09T00:18:03;15.8;;;7.7;;
41229;SDS011;26964;50.428;19.218;2023-07-09T00:19:03;15.6;;;8.3;;
41229;SDS011;26964;50.428;19.218;2023-07-09T00:20:04;15.2;;;7.8;;
41229;SDS011;26964;50.428;19.218;2023-07-09T00:21:03;15.4;;;8.1;;
41229;SDS011;26964;50.428;19.218;2023-07-09T00:22:04;16.1;;;8.0;;
41229;SDS011;26964;50.428;19.218;2023-07-09T00:23:03;13.6;;;7.5;;
41229;SDS011;26964;50.428;19.218;2023-07-09T00:24:03;16.0;;;8.1;;
41229;SDS011;26964;50.428;19.218;2023-07-09T00:25:03;16.4;;;8.5;;
41229;SDS011;26964;50.428;19.218;2023-07-09T00:26:04;17.7;;;7.8;;
41229;SDS011;26964;50.428;19.218;2023-07-09T00:27:04;14.3;;;7.7;;
41229;SDS011;26964;50.428;19.218;2023-07-09T00:28:03;18.2;;;7.9;;
41229;SDS011;26964;50.428;19.218;2023-07-09T00:29:03;14.3;;;7.3;;
41229;SDS011;26964;50.428;19.218;2023-07-09T00:30:03;22.3;;;8.7;;
41229;SDS011;26964;50.428;19.218;2023-07-09T00:31:03;17.2;;;8.1;;
41229;SDS011;26964;50.428;19.218;2023-07-09T00:32:04;14.8;;;8.8;;
41229;SDS011;26964;50.428;19.218;2023-07-09T00:33:03;16.1;;;8.6;;
41229;SDS011;26964;50.428;19.218;2023-07-09T00:34:03;20.2;;;9.4;;
41229;SDS011;26964;50.428;19.218;2023-07-09T00:35:03;19.3;;;9.6;;
41229;SDS011;26964;50.428;19.218;2023-07-09T00:36:04;18.2;;;10.0;;
41229;SDS011;26964;50.428;19.218;2023-07-09T00:37:03;15.6;;;9.0;;
41229;SDS011;26964;50.428;19.218;2023-07-09T00:38:03;18.6;;;8.9;;
41229;SDS011;26964;50.428;19.218;2023-07-09T00:39:03;17.3;;;9.9;;
41229;SDS011;26964;50.428;19.218;2023-07-09T00:40:03;17.6;;;10.1;;
41229;SDS011;26964;50.428;19.218;2023-07-09T00:41:04;15.9;;;9.2;;
41229;SDS011;26964;50.428;19.218;2023-07-09T00:42:03;19.7;;;9.3;;
41229;SDS011;26964;50.428;19.218;2023-07-09T00:43:04;13.8;;;8.3;;
41229;SDS011;26964;50.428;19.218;2023-07-09T00:45:07;16.4;;;9.1;;
41229;SDS011;26964;50.428;19.218;2023-07-09T00:48:04;21.0;;;10.1;;
41229;SDS011;26964;50.428;19.218;2023-07-09T00:49:04;15.9;;;9.2;;
41229;SDS011;26964;50.428;19.218;2023-07-09T00:50:05;19.6;;;9.5;;
41229;SDS011;26964;50.428;19.218;2023-07-09T00:51:04;15.6;;;9.3;;
41229;SDS011;26964;50.428;19.218;2023-07-09T00:52:17;17.9;;;9.0;;
41229;SDS011;26964;50.428;19.218;2023-07-09T00:53:04;18.9;;;9.1;;
41229;SDS011;26964;50.428;19.218;2023-07-09T00:55:04;18.1;;;8.9;;
41229;SDS011;26964;50.428;19.218;2023-07-09T00:56:04;16.7;;;9.5;;
41229;SDS011;26964;50.428;19.218;2023-07-09T00:57:04;15.9;;;8.9;;
41229;SDS011;26964;50.428;19.218;2023-07-09T00:58:04;19.2;;;9.7;;
41229;SDS011;26964;50.428;19.218;2023-07-09T00:59:04;26.4;;;9.6;;
41229;SDS011;26964;50.428;19.218;2023-07-09T01:00:05;21.8;;;9.3;;
41229;SDS011;26964;50.428;19.218;2023-07-09T01:01:03;17.9;;;9.0;;
41229;SDS011;26964;50.428;19.218;2023-07-09T01:02:03;19.5;;;9.1;;
41229;SDS011;26964;50.428;19.218;2023-07-09T01:03:03;24.2;;;9.1;;
41229;SDS011;26964;50.428;19.218;2023-07-09T01:04:03;20.4;;;9.0;;
41229;SDS011;26964;50.428;19.218;2023-07-09T01:05:03;19.7;;;9.3;;
41229;SDS011;26964;50.428;19.218;2023-07-09T01:06:03;17.4;;;9.1;;
41229;SDS011;26964;50.428;19.218;2023-07-09T01:07:03;18.2;;;8.6;;
41229;SDS011;26964;50.428;19.218;2023-07-09T01:08:03;15.6;;;8.6;;
41229;SDS011;26964;50.428;19.218;2023-07-09T01:09:04;20.9;;;9.3;;
41229;SDS011;26964;50.428;19.218;2023-07-09T01:10:03;14.3;;;8.7;;
41229;SDS011;26964;50.428;19.218;2023-07-09T01:11:03;16.4;;;8.9;;
41229;SDS011;26964;50.428;19.218;2023-07-09T01:12:03;17.0;;;9.3;;
41229;SDS011;26964;50.428;19.218;2023-07-09T01:13:03;16.4;;;9.6;;
41229;SDS011;26964;50.428;19.218;2023-07-09T01:14:04;19.7;;;9.4;;
41229;SDS011;26964;50.428;19.218;2023-07-09T01:15:03;19.4;;;9.9;;
41229;SDS011;26964;50.428;19.218;2023-07-09T01:16:03;18.7;;;9.5;;
41229;SDS011;26964;50.428;19.218;2023-07-09T01:17:04;16.0;;;8.6;;
41229;SDS011;26964;50.428;19.218;2023-07-09T01:18:03;15.2;;;8.7;;
41229;SDS011;26964;50.428;19.218;2023-07-09T01:19:03;18.6;;;9.8;;
41229;SDS011;26964;50.428;19.218;2023-07-09T01:20:03;16.0;;;9.2;;
41229;SDS011;26964;50.428;19.218;2023-07-09T01:21:07;14.4;;;9.0;;
41229;SDS011;26964;50.428;19.218;2023-07-09T01:22:03;18.1;;;8.9;;
41229;SDS011;26964;50.428;19.218;2023-07-09T01:23:03;23.2;;;9.3;;
41229;SDS011;26964;50.428;19.218;2023-07-09T01:25:04;14.6;;;9.2;;
41229;SDS011;26964;50.428;19.218;2023-07-09T01:26:03;13.4;;;8.9;;
41229;SDS011;26964;50.428;19.218;2023-07-09T01:27:03;15.8;;;8.9;;
41229;SDS011;26964;50.428;19.218;2023-07-09T01:28:03;13.5;;;8.4;;
41229;SDS011;26964;50.428;19.218;2023-07-09T01:29:03;16.9;;;8.4;;
41229;SDS011;26964;50.428;19.218;2023-07-09T01:30:04;15.3;;;9.0;;
41229;SDS011;26964;50.428;19.218;2023-07-09T01:31:03;19.3;;;10.9;;
41229;SDS011;26964;50.428;19.218;2023-07-09T01:32:03;16.5;;;9.3;;
41229;SDS011;26964;50.428;19.218;2023-07-09T01:33:03;17.4;;;9.7;;
41229;SDS011;26964;50.428;19.218;2023-07-09T01:34:03;14.1;;;8.8;;
41229;SDS011;26964;50.428;19.218;2023-07-09T01:35:04;15.5;;;9.2;;
41229;SDS011;26964;50.428;19.218;2023-07-09T01:36:03;17.5;;;9.3;;
41229;SDS011;26964;50.428;19.218;2023-07-09T01:37:03;21.1;;;10.4;;
41229;SDS011;26964;50.428;19.218;2023-07-09T01:38:03;16.2;;;9.7;;
41229;SDS011;26964;50.428;19.218;2023-07-09T01:39:03;18.5;;;9.7;;
41229;SDS011;26964;50.428;19.218;2023-07-09T01:40:04;18.9;;;9.8;;
41229;SDS011;26964;50.428;19.218;2023-07-09T01:41:03;19.5;;;11.0;;
41229;SDS011;26964;50.428;19.218;2023-07-09T01:42:03;16.7;;;10.0;;
41229;SDS011;26964;50.428;19.218;2023-07-09T01:43:03;22.9;;;10.6;;
41229;SDS011;26964;50.428;19.218;2023-07-09T01:44:03;24.3;;;11.0;;
41229;SDS011;26964;50.428;19.218;2023-07-09T01:45:04;20.9;;;11.3;;
41229;SDS011;26964;50.428;19.218;2023-07-09T01:46:03;16.0;;;10.1;;
41229;SDS011;26964;50.428;19.218;2023-07-09T01:47:03;19.1;;;10.9;;
41229;SDS011;26964;50.428;19.218;2023-07-09T01:48:03;15.6;;;9.5;;
41229;SDS011;26964;50.428;19.218;2023-07-09T01:49:03;16.8;;;9.9;;
41229;SDS011;26964;50.428;19.218;2023-07-09T01:50:04;17.0;;;9.7;;
41229;SDS011;26964;50.428;19.218;2023-07-09T01:51:03;22.8;;;10.7;;
41229;SDS011;26964;50.428;19.218;2023-07-09T01:52:03;17.9;;;10.4;;
41229;SDS011;26964;50.428;19.218;2023-07-09T01:53:03;16.2;;;9.6;;
41229;SDS011;26964;50.428;19.218;2023-07-09T01:54:03;17.9;;;10.3;;
41229;SDS011;26964;50.428;19.218;2023-07-09T01:55:03;13.8;;;9.0;;
41229;SDS011;26964;50.428;19.218;2023-07-09T01:56:03;18.1;;;11.1;;
41229;SDS011;26964;50.428;19.218;2023-07-09T01:58:03;14.8;;;9.7;;
41229;SDS011;26964;50.428;19.218;2023-07-09T01:59:03;13.6;;;9.2;;
41229;SDS011;26964;50.428;19.218;2023-07-09T02:00:04;14.8;;;10.1;;
41229;SDS011;26964;50.428;19.218;2023-07-09T02:01:03;13.2;;;9.0;;
41229;SDS011;26964;50.428;19.218;2023-07-09T02:02:03;15.9;;;9.7;;
41229;SDS011;26964;50.428;19.218;2023-07-09T02:03:03;14.9;;;8.9;;
41229;SDS011;26964;50.428;19.218;2023-07-09T02:04:03;14.3;;;9.5;;
41229;SDS011;26964;50.428;19.218;2023-07-09T02:05:03;14.0;;;9.3;;
41229;SDS011;26964;50.428;19.218;2023-07-09T02:06:03;15.4;;;9.2;;
41229;SDS011;26964;50.428;19.218;2023-07-09T02:07:03;14.6;;;9.7;;
41229;SDS011;26964;50.428;19.218;2023-07-09T02:08:03;16.0;;;9.1;;
41229;SDS011;26964;50.428;19.218;2023-07-09T02:09:03;17.2;;;10.2;;
41229;SDS011;26964;50.428;19.218;2023-07-09T02:10:03;15.2;;;10.0;;
41229;SDS011;26964;50.428;19.218;2023-07-09T02:11:03;16.2;;;10.1;;
41229;SDS011;26964;50.428;19.218;2023-07-09T02:12:03;16.0;;;9.8;;
41229;SDS011;26964;50.428;19.218;2023-07-09T02:13:03;15.8;;;10.3;;
41229;SDS011;26964;50.428;19.218;2023-07-09T02:14:03;15.0;;;9.9;;
41229;SDS011;26964;50.428;19.218;2023-07-09T02:15:03;15.5;;;9.5;;
41229;SDS011;26964;50.428;19.218;2023-07-09T02:16:03;17.1;;;10.3;;
41229;SDS011;26964;50.428;19.218;2023-07-09T02:17:03;18.6;;;10.4;;
41229;SDS011;26964;50.428;19.218;2023-07-09T02:18:03;14.8;;;9.1;;
41229;SDS011;26964;50.428;19.218;2023-07-09T02:19:03;15.4;;;10.0;;
41229;SDS011;26964;50.428;19.218;2023-07-09T02:20:03;14.9;;;9.9;;
41229;SDS011;26964;50.428;19.218;2023-07-09T02:21:04;15.1;;;9.7;;
41229;SDS011;26964;50.428;19.218;2023-07-09T02:22:03;15.0;;;9.3;;
41229;SDS011;26964;50.428;19.218;2023-07-09T02:23:03;16.2;;;10.7;;
41229;SDS011;26964;50.428;19.218;2023-07-09T02:24:03;15.0;;;10.5;;
41229;SDS011;26964;50.428;19.218;2023-07-09T02:25:03;15.2;;;10.5;;
41229;SDS011;26964;50.428;19.218;2023-07-09T02:26:03;17.8;;;10.6;;
41229;SDS011;26964;50.428;19.218;2023-07-09T02:27:04;16.1;;;10.7;;
41229;SDS011;26964;50.428;19.218;2023-07-09T02:28:03;13.9;;;10.0;;
41229;SDS011;26964;50.428;19.218;2023-07-09T02:29:03;18.2;;;10.5;;
41229;SDS011;26964;50.428;19.218;2023-07-09T02:30:03;19.2;;;10.2;;
41229;SDS011;26964;50.428;19.218;2023-07-09T02:31:03;15.7;;;10.0;;
41229;SDS011;26964;50.428;19.218;2023-07-09T02:32:03;18.0;;;9.8;;
41229;SDS011;26964;50.428;19.218;2023-07-09T02:33:03;16.4;;;10.6;;
41229;SDS011;26964;50.428;19.218;2023-07-09T02:34:03;13.5;;;9.9;;
41229;SDS011;26964;50.428;19.218;2023-07-09T02:35:03;16.7;;;10.2;;
41229;SDS011;26964;50.428;19.218;2023-07-09T02:36:03;14.6;;;10.4;;
41229;SDS011;26964;50.428;19.218;2023-07-09T02:37:03;15.7;;;10.6;;
41229;SDS011;26964;50.428;19.218;2023-07-09T02:38:03;18.1;;;9.6;;
41229;SDS011;26964;50.428;19.218;2023-07-09T02:39:03;16.6;;;10.3;;
41229;SDS011;26964;50.428;19.218;2023-07-09T02:40:03;16.4;;;10.2;;
41229;SDS011;26964;50.428;19.218;2023-07-09T02:41:03;17.5;;;10.4;;
41229;SDS011;26964;50.428;19.218;2023-07-09T02:42:03;18.8;;;10.1;;
41229;SDS011;26964;50.428;19.218;2023-07-09T02:43:03;19.0;;;11.0;;
41229;SDS011;26964;50.428;19.218;2023-07-09T02:44:03;19.8;;;10.5;;
41229;SDS011;26964;50.428;19.218;2023-07-09T02:45:03;22.4;;;9.9;;
41229;SDS011;26964;50.428;19.218;2023-07-09T02:46:03;16.0;;;10.2;;
41229;SDS011;26964;50.428;19.218;2023-07-09T02:47:03;17.9;;;10.5;;
41229;SDS011;26964;50.428;19.218;2023-07-09T02:48:03;16.9;;;10.6;;
41229;SDS011;26964;50.428;19.218;2023-07-09T02:49:03;20.6;;;10.5;;
41229;SDS011;26964;50.428;19.218;2023-07-09T02:50:03;15.1;;;9.2;;
41229;SDS011;26964;50.428;19.218;2023-07-09T02:51:03;19.6;;;9.9;;
41229;SDS011;26964;50.428;19.218;2023-07-09T02:52:03;18.8;;;10.7;;
41229;SDS011;26964;50.428;19.218;2023-07-09T02:53:03;18.0;;;10.5;;
41229;SDS011;26964;50.428;19.218;2023-07-09T02:54:03;22.2;;;10.0;;
41229;SDS011;26964;50.428;19.218;2023-07-09T02:55:03;19.3;;;10.5;;
41229;SDS011;26964;50.428;19.218;2023-07-09T02:56:03;16.2;;;10.2;;
41229;SDS011;26964;50.428;19.218;2023-07-09T02:57:03;16.8;;;9.6;;
41229;SDS011;26964;50.428;19.218;2023-07-09T02:58:03;17.0;;;10.4;;
41229;SDS011;26964;50.428;19.218;2023-07-09T02:59:03;17.9;;;9.5;;
41229;SDS011;26964;50.428;19.218;2023-07-09T03:00:03;21.0;;;10.6;;
41229;SDS011;26964;50.428;19.218;2023-07-09T03:01:03;18.1;;;11.4;;
41229;SDS011;26964;50.428;19.218;2023-07-09T03:02:03;18.7;;;11.9;;
41229;SDS011;26964;50.428;19.218;2023-07-09T03:03:03;20.3;;;10.3;;
41229;SDS011;26964;50.428;19.218;2023-07-09T03:04:03;19.7;;;9.9;;
41229;SDS011;26964;50.428;19.218;2023-07-09T03:05:03;17.4;;;9.8;;
41229;SDS011;26964;50.428;19.218;2023-07-09T03:06:03;16.8;;;9.9;;
41229;SDS011;26964;50.428;19.218;2023-07-09T03:07:03;19.3;;;10.6;;
41229;SDS011;26964;50.428;19.218;2023-07-09T03:08:03;14.0;;;9.7;;
41229;SDS011;26964;50.428;19.218;2023-07-09T03:09:03;22.3;;;10.0;;
41229;SDS011;26964;50.428;19.218;2023-07-09T03:10:03;21.3;;;10.8;;
41229;SDS011;26964;50.428;19.218;2023-07-09T03:12:03;19.5;;;10.1;;
41229;SDS011;26964;50.428;19.218;2023-07-09T03:13:03;16.0;;;10.0;;
41229;SDS011;26964;50.428;19.218;2023-07-09T03:14:03;19.1;;;9.7;;
41229;SDS011;26964;50.428;19.218;2023-07-09T03:15:03;15.8;;;9.4;;
41229;SDS011;26964;50.428;19.218;2023-07-09T03:16:03;19.5;;;10.7;;
41229;SDS011;26964;50.428;19.218;2023-07-09T03:17:03;19.0;;;10.2;;
41229;SDS011;26964;50.428;19.218;2023-07-09T03:18:03;19.7;;;10.2;;
41229;SDS011;26964;50.428;19.218;2023-07-09T03:19:03;20.5;;;10.8;;
41229;SDS011;26964;50.428;19.218;2023-07-09T03:20:03;17.3;;;10.0;;
41229;SDS011;26964;50.428;19.218;2023-07-09T03:21:03;20.4;;;10.0;;
41229;SDS011;26964;50.428;19.218;2023-07-09T03:22:03;15.9;;;10.3;;
41229;SDS011;26964;50.428;19.218;2023-07-09T03:23:03;18.9;;;10.8;;
41229;SDS011;26964;50.428;19.218;2023-07-09T03:24:03;18.7;;;10.0;;
41229;SDS011;26964;50.428;19.218;2023-07-09T03:25:03;18.1;;;10.0;;
41229;SDS011;26964;50.428;19.218;2023-07-09T03:26:03;22.7;;;10.8;;
41229;SDS011;26964;50.428;19.218;2023-07-09T03:27:03;14.9;;;10.2;;
41229;SDS011;26964;50.428;19.218;2023-07-09T03:28:03;13.4;;;9.3;;
41229;SDS011;26964;50.428;19.218;2023-07-09T03:29:03;16.2;;;10.4;;
41229;SDS011;26964;50.428;19.218;2023-07-09T03:30:03;17.3;;;11.2;;
41229;SDS011;26964;50.428;19.218;2023-07-09T03:31:03;18.6;;;10.5;;
41229;SDS011;26964;50.428;19.218;2023-07-09T03:32:03;19.8;;;10.8;;
41229;SDS011;26964;50.428;19.218;2023-07-09T03:33:03;17.7;;;10.7;;
41229;SDS011;26964;50.428;19.218;2023-07-09T03:34:03;16.9;;;10.0;;
41229;SDS011;26964;50.428;19.218;2023-07-09T03:35:03;14.5;;;9.8;;
41229;SDS011;26964;50.428;19.218;2023-07-09T03:36:03;17.1;;;10.1;;
41229;SDS011;26964;50.428;19.218;2023-07-09T03:37:03;14.8;;;9.3;;
41229;SDS011;26964;50.428;19.218;2023-07-09T03:38:03;15.5;;;10.5;;
41229;SDS011;26964;50.428;19.218;2023-07-09T03:39:03;17.4;;;9.7;;
41229;SDS011;26964;50.428;19.218;2023-07-09T03:40:03;15.9;;;10.6;;
41229;SDS011;26964;50.428;19.218;2023-07-09T03:41:03;17.0;;;10.7;;
41229;SDS011;26964;50.428;19.218;2023-07-09T03:42:03;18.5;;;11.0;;
41229;SDS011;26964;50.428;19.218;2023-07-09T03:43:03;19.6;;;11.3;;
41229;SDS011;26964;50.428;19.218;2023-07-09T03:44:03;18.5;;;10.9;;
41229;SDS011;26964;50.428;19.218;2023-07-09T03:45:03;17.1;;;10.1;;
41229;SDS011;26964;50.428;19.218;2023-07-09T03:46:03;21.3;;;10.8;;
41229;SDS011;26964;50.428;19.218;2023-07-09T03:47:03;19.4;;;12.0;;
41229;SDS011;26964;50.428;19.218;2023-07-09T03:48:03;18.0;;;10.5;;
41229;SDS011;26964;50.428;19.218;2023-07-09T03:49:03;17.7;;;10.9;;
41229;SDS011;26964;50.428;19.218;2023-07-09T03:50:04;19.6;;;11.3;;
41229;SDS011;26964;50.428;19.218;2023-07-09T03:51:03;19.2;;;11.7;;
41229;SDS011;26964;50.428;19.218;2023-07-09T03:52:03;17.1;;;11.0;;
41229;SDS011;26964;50.428;19.218;2023-07-09T03:53:03;16.3;;;10.8;;
41229;SDS011;26964;50.428;19.218;2023-07-09T03:54:03;18.1;;;12.5;;
41229;SDS011;26964;50.428;19.218;2023-07-09T03:55:03;23.9;;;12.9;;
41229;SDS011;26964;50.428;19.218;2023-07-09T03:56:03;19.4;;;12.4;;
41229;SDS011;26964;50.428;19.218;2023-07-09T03:57:03;25.4;;;12.8;;
41229;SDS011;26964;50.428;19.218;2023-07-09T03:58:03;16.1;;;11.0;;
41229;SDS011;26964;50.428;19.218;2023-07-09T03:59:03;19.9;;;11.7;;
41229;SDS011;26964;50.428;19.218;2023-07-09T04:00:03;16.8;;;10.5;;
41229;SDS011;26964;50.428;19.218;2023-07-09T04:01:03;17.8;;;10.9;;
41229;SDS011;26964;50.428;19.218;2023-07-09T04:02:03;19.3;;;10.8;;
41229;SDS011;26964;50.428;19.218;2023-07-09T04:03:03;17.8;;;11.7;;
41229;SDS011;26964;50.428;19.218;2023-07-09T04:04:03;18.9;;;12.4;;
41229;SDS011;26964;50.428;19.218;2023-07-09T04:05:03;19.2;;;11.4;;
41229;SDS011;26964;50.428;19.218;2023-07-09T04:06:03;25.2;;;11.8;;
41229;SDS011;26964;50.428;19.218;2023-07-09T04:07:03;20.4;;;11.6;;
41229;SDS011;26964;50.428;19.218;2023-07-09T04:08:03;19.8;;;11.7;;
41229;SDS011;26964;50.428;19.218;2023-07-09T04:09:03;22.5;;;12.5;;
41229;SDS011;26964;50.428;19.218;2023-07-09T04:10:03;25.3;;;12.3;;
41229;SDS011;26964;50.428;19.218;2023-07-09T04:11:03;18.2;;;11.9;;
41229;SDS011;26964;50.428;19.218;2023-07-09T04:12:03;23.5;;;12.4;;
41229;SDS011;26964;50.428;19.218;2023-07-09T04:13:03;25.5;;;12.2;;
41229;SDS011;26964;50.428;19.218;2023-07-09T04:14:03;22.7;;;11.6;;
41229;SDS011;26964;50.428;19.218;2023-07-09T04:15:03;21.0;;;12.0;;
41229;SDS011;26964;50.428;19.218;2023-07-09T04:16:03;22.7;;;11.8;;
41229;SDS011;26964;50.428;19.218;2023-07-09T04:17:03;28.0;;;12.1;;
41229;SDS011;26964;50.428;19.218;2023-07-09T04:18:03;24.4;;;12.2;;
41229;SDS011;26964;50.428;19.218;2023-07-09T04:19:03;27.3;;;11.3;;
41229;SDS011;26964;50.428;19.218;2023-07-09T04:20:03;23.2;;;12.5;;
41229;SDS011;26964;50.428;19.218;2023-07-09T04:21:03;21.6;;;11.0;;
41229;SDS011;26964;50.428;19.218;2023-07-09T04:22:03;17.9;;;11.1;;
41229;SDS011;26964;50.428;19.218;2023-07-09T04:23:03;21.6;;;11.5;;
41229;SDS011;26964;50.428;19.218;2023-07-09T04:24:03;19.2;;;10.7;;
41229;SDS011;26964;50.428;19.218;2023-07-09T04:25:03;21.7;;;10.6;;
41229;SDS011;26964;50.428;19.218;2023-07-09T04:26:03;21.4;;;11.3;;
41229;SDS011;26964;50.428;19.218;2023-07-09T04:27:03;21.3;;;11.1;;
41229;SDS011;26964;50.428;19.218;2023-07-09T04:28:03;23.0;;;11.2;;
41229;SDS011;26964;50.428;19.218;2023-07-09T04:29:03;21.1;;;11.2;;
41229;SDS011;26964;50.428;19.218;2023-07-09T04:30:03;16.8;;;10.1;;
41229;SDS011;26964;50.428;19.218;2023-07-09T04:31:03;20.2;;;11.0;;
41229;SDS011;26964;50.428;19.218;2023-07-09T04:32:03;25.5;;;11.5;;
41229;SDS011;26964;50.428;19.218;2023-07-09T04:33:03;20.6;;;11.2;;
41229;SDS011;26964;50.428;19.218;2023-07-09T04:34:03;26.0;;;10.9;;
41229;SDS011;26964;50.428;19.218;2023-07-09T04:35:03;22.0;;;11.2;;
41229;SDS011;26964;50.428;19.218;2023-07-09T04:36:03;22.2;;;11.4;;
41229;SDS011;26964;50.428;19.218;2023-07-09T04:37:03;16.8;;;10.1;;
41229;SDS011;26964;50.428;19.218;2023-07-09T04:38:03;19.8;;;10.9;;
41229;SDS011;26964;50.428;19.218;2023-07-09T04:39:03;20.7;;;10.3;;
41229;SDS011;26964;50.428;19.218;2023-07-09T04:40:03;22.6;;;11.2;;
41229;SDS011;26964;50.428;19.218;2023-07-09T04:41:03;19.8;;;11.0;;
41229;SDS011;26964;50.428;19.218;2023-07-09T04:42:03;17.7;;;9.9;;
41229;SDS011;26964;50.428;19.218;2023-07-09T04:43:03;21.3;;;11.0;;
41229;SDS011;26964;50.428;19.218;2023-07-09T04:44:03;17.3;;;10.8;;
41229;SDS011;26964;50.428;19.218;2023-07-09T04:45:03;20.8;;;10.5;;
41229;SDS011;26964;50.428;19.218;2023-07-09T04:46:03;18.1;;;10.1;;
41229;SDS011;26964;50.428;19.218;2023-07-09T04:47:03;18.0;;;9.7;;
41229;SDS011;26964;50.428;19.218;2023-07-09T04:48:03;19.6;;;10.5;;
41229;SDS011;26964;50.428;19.218;2023-07-09T04:49:03;18.6;;;10.0;;
41229;SDS011;26964;50.428;19.218;2023-07-09T04:50:03;18.6;;;10.8;;
41229;SDS011;26964;50.428;19.218;2023-07-09T04:51:03;17.0;;;10.6;;
41229;SDS011;26964;50.428;19.218;2023-07-09T04:52:03;18.0;;;10.0;;
41229;SDS011;26964;50.428;19.218;2023-07-09T04:53:03;19.8;;;10.4;;
41229;SDS011;26964;50.428;19.218;2023-07-09T04:54:03;22.0;;;11.7;;
41229;SDS011;26964;50.428;19.218;2023-07-09T04:55:03;17.7;;;10.3;;
41229;SDS011;26964;50.428;19.218;2023-07-09T04:56:03;17.4;;;9.9;;
41229;SDS011;26964;50.428;19.218;2023-07-09T04:57:03;18.9;;;10.2;;
41229;SDS011;26964;50.428;19.218;2023-07-09T04:58:03;17.9;;;10.0;;
41229;SDS011;26964;50.428;19.218;2023-07-09T04:59:03;18.0;;;11.5;;
41229;SDS011;26964;50.428;19.218;2023-07-09T05:00:03;17.6;;;10.5;;
41229;SDS011;26964;50.428;19.218;2023-07-09T05:01:03;15.6;;;9.9;;
41229;SDS011;26964;50.428;19.218;2023-07-09T05:02:03;17.0;;;10.1;;
41229;SDS011;26964;50.428;19.218;2023-07-09T05:03:03;16.4;;;9.9;;
41229;SDS011;26964;50.428;19.218;2023-07-09T05:04:03;17.3;;;9.9;;
41229;SDS011;26964;50.428;19.218;2023-07-09T05:05:03;17.3;;;11.2;;
41229;SDS011;26964;50.428;19.218;2023-07-09T05:06:03;19.5;;;10.4;;
41229;SDS011;26964;50.428;19.218;2023-07-09T05:07:03;14.5;;;9.9;;
41229;SDS011;26964;50.428;19.218;2023-07-09T05:08:03;14.6;;;10.1;;
41229;SDS011;26964;50.428;19.218;2023-07-09T05:09:03;16.8;;;10.2;;
41229;SDS011;26964;50.428;19.218;2023-07-09T05:10:03;18.2;;;10.6;;
41229;SDS011;26964;50.428;19.218;2023-07-09T05:11:03;18.4;;;10.4;;
41229;SDS011;26964;50.428;19.218;2023-07-09T05:12:03;15.4;;;10.5;;
41229;SDS011;26964;50.428;19.218;2023-07-09T05:13:02;16.3;;;9.4;;
41229;SDS011;26964;50.428;19.218;2023-07-09T05:14:03;17.5;;;10.2;;
41229;SDS011;26964;50.428;19.218;2023-07-09T05:15:03;14.8;;;10.1;;
41229;SDS011;26964;50.428;19.218;2023-07-09T05:16:03;17.4;;;10.2;;
41229;SDS011;26964;50.428;19.218;2023-07-09T05:17:03;14.9;;;10.4;;
41229;SDS011;26964;50.428;19.218;2023-07-09T05:18:02;17.9;;;10.5;;
41229;SDS011;26964;50.428;19.218;2023-07-09T05:19:03;13.1;;;9.6;;
41229;SDS011;26964;50.428;19.218;2023-07-09T05:20:03;15.7;;;10.2;;
41229;SDS011;26964;50.428;19.218;2023-07-09T05:21:03;14.2;;;9.8;;
41229;SDS011;26964;50.428;19.218;2023-07-09T05:22:03;16.4;;;10.6;;
41229;SDS011;26964;50.428;19.218;2023-07-09T05:23:03;16.1;;;10.3;;
41229;SDS011;26964;50.428;19.218;2023-07-09T05:24:03;17.6;;;10.6;;
41229;SDS011;26964;50.428;19.218;2023-07-09T05:25:03;16.1;;;10.3;;
41229;SDS011;26964;50.428;19.218;2023-07-09T05:26:03;14.6;;;10.3;;
41229;SDS011;26964;50.428;19.218;2023-07-09T05:27:03;24.0;;;11.5;;
41229;SDS011;26964;50.428;19.218;2023-07-09T05:28:03;15.8;;;10.3;;
41229;SDS011;26964;50.428;19.218;2023-07-09T05:29:03;14.9;;;9.9;;
41229;SDS011;26964;50.428;19.218;2023-07-09T05:30:04;15.8;;;10.7;;
41229;SDS011;26964;50.428;19.218;2023-07-09T05:31:03;13.7;;;10.6;;
41229;SDS011;26964;50.428;19.218;2023-07-09T05:32:03;16.8;;;11.3;;
41229;SDS011;26964;50.428;19.218;2023-07-09T05:33:02;16.8;;;10.8;;
41229;SDS011;26964;50.428;19.218;2023-07-09T05:34:02;17.9;;;10.5;;
41229;SDS011;26964;50.428;19.218;2023-07-09T05:35:03;15.0;;;11.2;;
41229;SDS011;26964;50.428;19.218;2023-07-09T05:36:03;17.2;;;11.2;;
41229;SDS011;26964;50.428;19.218;2023-07-09T05:37:03;16.5;;;10.3;;
41229;SDS011;26964;50.428;19.218;2023-07-09T05:38:03;17.7;;;11.3;;
41229;SDS011;26964;50.428;19.218;2023-07-09T05:39:02;15.5;;;9.9;;
41229;SDS011;26964;50.428;19.218;2023-07-09T05:40:03;18.3;;;11.2;;
41229;SDS011;26964;50.428;19.218;2023-07-09T05:41:03;13.7;;;9.8;;
41229;SDS011;26964;50.428;19.218;2023-07-09T05:42:03;15.2;;;10.1;;
41229;SDS011;26964;50.428;19.218;2023-07-09T05:43:02;14.0;;;10.2;;
41229;SDS011;26964;50.428;19.218;2023-07-09T05:44:03;15.4;;;9.8;;
41229;SDS011;26964;50.428;19.218;2023-07-09T05:45:03;14.2;;;10.4;;
41229;SDS011;26964;50.428;19.218;2023-07-09T05:46:04;15.5;;;10.4;;
41229;SDS011;26964;50.428;19.218;2023-07-09T05:47:03;18.2;;;10.2;;
41229;SDS011;26964;50.428;19.218;2023-07-09T05:48:03;18.6;;;11.1;;
41229;SDS011;26964;50.428;19.218;2023-07-09T05:49:03;14.4;;;9.8;;
41229;SDS011;26964;50.428;19.218;2023-07-09T05:50:03;14.9;;;10.4;;
41229;SDS011;26964;50.428;19.218;2023-07-09T05:51:03;14.3;;;10.1;;
41229;SDS011;26964;50.428;19.218;2023-07-09T05:52:03;14.0;;;9.8;;
41229;SDS011;26964;50.428;19.218;2023-07-09T05:53:02;14.9;;;10.1;;
41229;SDS011;26964;50.428;19.218;2023-07-09T05:54:03;15.3;;;10.3;;
41229;SDS011;26964;50.428;19.218;2023-07-09T05:55:03;16.5;;;10.7;;
41229;SDS011;26964;50.428;19.218;2023-07-09T05:56:03;16.0;;;11.0;;
41229;SDS011;26964;50.428;19.218;2023-07-09T05:57:03;17.2;;;10.9;;
41229;SDS011;26964;50.428;19.218;2023-07-09T05:58:02;16.0;;;11.0;;
41229;SDS011;26964;50.428;19.218;2023-07-09T05:59:02;16.3;;;10.3;;
41229;SDS011;26964;50.428;19.218;2023-07-09T06:00:03;16.8;;;10.6;;
41229;SDS011;26964;50.428;19.218;2023-07-09T06:01:03;15.1;;;10.7;;
41229;SDS011;26964;50.428;19.218;2023-07-09T06:02:03;14.7;;;10.7;;
41229;SDS011;26964;50.428;19.218;2023-07-09T06:03:02;14.7;;;10.1;;
41229;SDS011;26964;50.428;19.218;2023-07-09T06:04:03;15.8;;;10.6;;
41229;SDS011;26964;50.428;19.218;2023-07-09T06:05:03;16.5;;;10.6;;